createdAt,value
2018-05-25T00:00:33.460Z,0.00
2018-05-25T00:01:33.338Z,0.00
2018-05-25T00:02:33.216Z,0.00
2018-05-25T00:03:33.095Z,0.00
2018-05-25T00:04:32.968Z,0.00
2018-05-25T00:05:32.846Z,0.00
2018-05-25T00:06:32.721Z,0.00
2018-05-25T00:07:32.596Z,0.00
2018-05-25T00:08:32.474Z,0.00
2018-05-25T00:09:32.352Z,0.00
2018-05-25T00:10:32.229Z,0.00
2018-05-25T00:11:32.106Z,0.00
2018-05-25T00:12:31.980Z,0.00
2018-05-25T00:13:31.857Z,0.00
2018-05-25T00:14:31.733Z,0.00
2018-05-25T00:15:31.616Z,0.00
2018-05-25T00:16:31.488Z,0.00
2018-05-25T00:17:31.364Z,0.00
2018-05-25T00:18:31.238Z,0.00
2018-05-25T00:19:31.117Z,0.00
2018-05-25T00:20:30.993Z,0.00
2018-05-25T00:21:30.870Z,0.00
2018-05-25T00:22:30.747Z,0.00
2018-05-25T00:23:30.628Z,0.00
2018-05-25T00:24:30.503Z,0.00
2018-05-25T00:25:30.380Z,0.00
2018-05-25T00:26:30.253Z,0.00
2018-05-25T00:27:30.132Z,0.00
2018-05-25T00:28:30.006Z,0.00
2018-05-25T00:29:29.886Z,0.00
2018-05-25T00:30:29.763Z,0.00
2018-05-25T00:31:29.636Z,0.00
2018-05-25T00:32:29.514Z,0.00
2018-05-25T00:33:29.388Z,0.00
2018-05-25T00:34:29.268Z,0.00
2018-05-25T00:35:29.143Z,0.00
2018-05-25T00:36:29.054Z,0.00
2018-05-25T00:37:28.898Z,0.00
2018-05-25T00:38:28.775Z,0.00
2018-05-25T00:39:28.652Z,0.00
2018-05-25T00:40:28.527Z,0.00
2018-05-25T00:41:28.406Z,0.00
2018-05-25T00:42:28.283Z,0.00
2018-05-25T00:43:28.159Z,0.00
2018-05-25T00:44:28.035Z,0.00
2018-05-25T00:45:27.914Z,0.00
2018-05-25T00:46:27.790Z,0.00
2018-05-25T00:47:27.669Z,0.00
2018-05-25T00:48:27.544Z,0.00
2018-05-25T00:49:27.418Z,0.00
2018-05-25T00:50:27.330Z,0.00
2018-05-25T00:51:27.173Z,0.00
2018-05-25T00:52:27.051Z,0.00
2018-05-25T00:53:26.929Z,0.00
2018-05-25T00:54:26.804Z,0.00
2018-05-25T00:55:26.679Z,0.00
2018-05-25T00:56:26.557Z,0.00
2018-05-25T00:57:26.431Z,0.00
2018-05-25T00:58:26.310Z,0.00
2018-05-25T00:59:26.189Z,0.00
2018-05-25T01:00:26.066Z,0.00
2018-05-25T01:01:25.939Z,0.00
2018-05-25T01:02:25.817Z,0.00
2018-05-25T01:03:25.694Z,0.00
2018-05-25T01:04:25.568Z,0.00
2018-05-25T01:05:25.445Z,0.00
2018-05-25T01:06:25.321Z,0.00
2018-05-25T01:07:25.199Z,0.00
2018-05-25T01:08:25.073Z,0.00
2018-05-25T01:09:24.947Z,0.00
2018-05-25T01:10:24.824Z,0.00
2018-05-25T01:11:24.704Z,0.00
2018-05-25T01:12:24.582Z,0.00
2018-05-25T01:13:24.479Z,0.00
2018-05-25T01:14:24.332Z,0.00
2018-05-25T01:15:24.209Z,0.00
2018-05-25T01:16:24.088Z,0.00
2018-05-25T01:17:23.961Z,0.00
2018-05-25T01:18:23.836Z,0.00
2018-05-25T01:19:23.716Z,0.00
2018-05-25T01:20:23.592Z,0.00
2018-05-25T01:21:23.467Z,0.00
2018-05-25T01:22:23.344Z,0.00
2018-05-25T01:23:23.222Z,0.00
2018-05-25T01:24:23.097Z,0.00
2018-05-25T01:25:22.975Z,0.00
2018-05-25T01:26:22.851Z,0.00
2018-05-25T01:27:22.726Z,0.00
2018-05-25T01:28:22.604Z,0.00
2018-05-25T01:29:22.478Z,0.00
2018-05-25T01:30:22.358Z,0.00
2018-05-25T01:31:22.233Z,0.00
2018-05-25T01:32:22.107Z,0.00
2018-05-25T01:33:21.988Z,0.00
2018-05-25T01:34:21.860Z,0.00
2018-05-25T01:35:21.735Z,0.00
2018-05-25T01:36:21.612Z,0.00
2018-05-25T01:37:21.486Z,0.00
2018-05-25T01:38:21.367Z,0.00
2018-05-25T01:39:21.244Z,0.00
2018-05-25T01:40:21.118Z,0.00
2018-05-25T01:41:20.996Z,0.00
2018-05-25T01:42:20.873Z,0.00
2018-05-25T01:43:20.747Z,0.00
2018-05-25T01:44:20.623Z,0.00
2018-05-25T01:45:20.496Z,0.00
2018-05-25T01:46:20.373Z,0.00
2018-05-25T01:47:20.251Z,0.00
2018-05-25T01:48:20.123Z,0.00
2018-05-25T01:49:20.001Z,0.00
2018-05-25T01:50:19.878Z,0.00
2018-05-25T01:51:19.752Z,0.00
2018-05-25T01:52:19.627Z,0.00
2018-05-25T01:53:19.504Z,0.00
2018-05-25T01:54:19.382Z,0.00
2018-05-25T01:55:19.258Z,0.00
2018-05-25T01:56:19.130Z,0.00
2018-05-25T01:57:19.015Z,0.00
2018-05-25T01:58:18.884Z,0.00
2018-05-25T01:59:18.760Z,0.00
2018-05-25T02:00:18.637Z,0.00
2018-05-25T02:01:18.511Z,0.00
2018-05-25T02:02:18.386Z,0.00
2018-05-25T02:03:18.264Z,0.00
2018-05-25T02:04:18.149Z,0.00
2018-05-25T02:05:18.016Z,0.00
2018-05-25T02:06:17.892Z,0.00
2018-05-25T02:07:17.769Z,0.00
2018-05-25T02:08:17.641Z,0.00
2018-05-25T02:09:17.518Z,0.00
2018-05-25T02:10:17.395Z,0.00
2018-05-25T02:11:17.273Z,0.00
2018-05-25T02:12:17.147Z,0.00
2018-05-25T02:13:17.022Z,0.00
2018-05-25T02:14:16.897Z,0.00
2018-05-25T02:15:16.777Z,0.00
2018-05-25T02:16:16.649Z,0.00
2018-05-25T02:17:16.524Z,0.00
2018-05-25T02:18:16.405Z,0.00
2018-05-25T02:19:16.275Z,0.00
2018-05-25T02:20:16.151Z,0.00
2018-05-25T02:21:16.036Z,0.00
2018-05-25T02:22:15.903Z,0.00
2018-05-25T02:23:15.779Z,0.00
2018-05-25T02:24:15.653Z,0.00
2018-05-25T02:25:15.529Z,0.00
2018-05-25T02:26:15.404Z,0.00
2018-05-25T02:27:15.278Z,0.00
2018-05-25T02:28:15.154Z,0.00
2018-05-25T02:29:15.030Z,0.00
2018-05-25T02:30:14.911Z,0.00
2018-05-25T02:31:14.781Z,0.00
2018-05-25T02:32:14.657Z,0.00
2018-05-25T02:33:14.528Z,0.00
2018-05-25T02:34:14.402Z,0.00
2018-05-25T02:35:14.279Z,0.00
2018-05-25T02:36:14.155Z,0.00
2018-05-25T02:37:14.030Z,0.00
2018-05-25T02:38:13.905Z,0.00
2018-05-25T02:39:13.779Z,0.00
2018-05-25T02:40:13.654Z,0.00
2018-05-25T02:41:13.531Z,0.00
2018-05-25T02:42:13.404Z,0.00
2018-05-25T02:43:13.280Z,0.00
2018-05-25T02:44:13.153Z,0.00
2018-05-25T02:45:13.045Z,0.00
2018-05-25T02:46:12.907Z,0.00
2018-05-25T02:47:12.779Z,0.00
2018-05-25T02:48:12.659Z,0.00
2018-05-25T02:49:12.528Z,0.00
2018-05-25T02:50:12.405Z,0.00
2018-05-25T02:51:12.281Z,0.00
2018-05-25T02:52:12.155Z,0.00
2018-05-25T02:53:12.034Z,0.00
2018-05-25T02:54:11.908Z,0.00
2018-05-25T02:55:11.782Z,0.00
2018-05-25T02:56:11.654Z,0.00
2018-05-25T02:57:11.572Z,0.00
2018-05-25T02:58:11.403Z,0.00
2018-05-25T02:59:11.279Z,0.00
2018-05-25T03:00:11.155Z,0.00
2018-05-25T03:01:11.029Z,0.00
2018-05-25T03:02:10.904Z,0.00
2018-05-25T03:03:10.780Z,0.00
2018-05-25T03:04:10.651Z,0.00
2018-05-25T03:05:10.529Z,0.00
2018-05-25T03:06:10.402Z,0.00
2018-05-25T03:07:10.279Z,0.00
2018-05-25T03:08:10.150Z,0.00
2018-05-25T03:09:10.030Z,0.00
2018-05-25T03:10:09.900Z,0.00
2018-05-25T03:11:09.778Z,0.00
2018-05-25T03:12:09.653Z,0.00
2018-05-25T03:13:09.525Z,4.00
2018-05-25T03:14:09.399Z,4.00
2018-05-25T03:15:09.275Z,0.00
2018-05-25T03:16:09.148Z,4.00
2018-05-25T03:17:09.028Z,4.00
2018-05-25T03:18:08.896Z,8.00
2018-05-25T03:19:08.771Z,4.00
2018-05-25T03:20:08.644Z,8.00
2018-05-25T03:21:08.521Z,8.00
2018-05-25T03:22:08.397Z,8.00
2018-05-25T03:23:08.271Z,12.00
2018-05-25T03:24:08.143Z,12.00
2018-05-25T03:25:08.021Z,16.00
2018-05-25T03:26:07.928Z,16.00
2018-05-25T03:27:07.769Z,16.00
2018-05-25T03:28:07.642Z,20.00
2018-05-25T03:29:07.516Z,24.00
2018-05-25T03:30:07.396Z,28.00
2018-05-25T03:31:07.268Z,32.00
2018-05-25T03:32:07.145Z,36.00
2018-05-25T03:33:07.017Z,40.00
2018-05-25T03:34:06.889Z,44.00
2018-05-25T03:35:06.765Z,48.00
2018-05-25T03:36:06.637Z,52.00
2018-05-25T03:37:06.512Z,56.00
2018-05-25T03:38:06.390Z,60.00
2018-05-25T03:39:06.264Z,64.00
2018-05-25T03:40:06.141Z,72.00
2018-05-25T03:41:06.025Z,80.00
2018-05-25T03:42:05.889Z,84.00
2018-05-25T03:43:05.762Z,88.00
2018-05-25T03:44:05.635Z,96.00
2018-05-25T03:45:05.510Z,100.00
2018-05-25T03:46:05.388Z,108.00
2018-05-25T03:47:05.259Z,116.00
2018-05-25T03:48:05.133Z,124.00
2018-05-25T03:49:05.011Z,128.00
2018-05-25T03:50:04.889Z,136.00
2018-05-25T03:51:04.758Z,144.00
2018-05-25T03:52:04.635Z,152.00
2018-05-25T03:53:04.505Z,156.00
2018-05-25T03:54:04.381Z,164.00
2018-05-25T03:55:04.256Z,172.00
2018-05-25T03:56:04.129Z,176.00
2018-05-25T03:57:04.006Z,184.00
2018-05-25T03:58:03.881Z,192.00
2018-05-25T03:59:03.752Z,196.00
2018-05-25T04:00:03.627Z,204.00
2018-05-25T04:01:03.500Z,212.00
2018-05-25T04:02:03.384Z,216.00
2018-05-25T04:03:03.250Z,224.00
2018-05-25T04:04:03.124Z,232.00
2018-05-25T04:05:02.999Z,236.00
2018-05-25T04:06:02.874Z,244.00
2018-05-25T04:07:02.749Z,248.00
2018-05-25T04:08:02.621Z,256.00
2018-05-25T04:09:02.512Z,260.00
2018-05-25T04:10:02.373Z,268.00
2018-05-25T04:11:02.254Z,272.00
2018-05-25T04:12:02.129Z,280.00
2018-05-25T04:13:01.995Z,284.00
2018-05-25T04:14:01.873Z,292.00
2018-05-25T04:15:01.744Z,296.00
2018-05-25T04:16:01.620Z,300.00
2018-05-25T04:17:01.493Z,308.00
2018-05-25T04:18:01.368Z,312.00
2018-05-25T04:19:01.246Z,316.00
2018-05-25T04:20:01.118Z,324.00
2018-05-25T04:21:00.991Z,328.00
2018-05-25T04:22:00.867Z,332.00
2018-05-25T04:23:00.741Z,336.00
2018-05-25T04:24:00.614Z,340.00
2018-05-25T04:25:00.493Z,348.00
2018-05-25T04:26:00.367Z,352.00
2018-05-25T04:27:00.245Z,352.00
2018-05-25T04:28:00.111Z,360.00
2018-05-25T04:28:59.988Z,364.00
2018-05-25T04:29:59.863Z,368.00
2018-05-25T04:30:59.746Z,388.00
2018-05-25T04:31:59.612Z,428.00
2018-05-25T04:32:59.488Z,488.00
2018-05-25T04:33:59.359Z,560.00
2018-05-25T04:34:59.245Z,592.00
2018-05-25T04:35:59.116Z,604.00
2018-05-25T04:36:58.985Z,608.00
2018-05-25T04:37:58.860Z,620.00
2018-05-25T04:38:58.743Z,628.00
2018-05-25T04:39:58.612Z,636.00
2018-05-25T04:40:58.491Z,640.00
2018-05-25T04:41:58.360Z,648.00
2018-05-25T04:42:58.238Z,656.00
2018-05-25T04:43:58.111Z,668.00
2018-05-25T04:44:57.989Z,676.00
2018-05-25T04:45:57.862Z,684.00
2018-05-25T04:46:57.739Z,692.00
2018-05-25T04:47:57.610Z,700.00
2018-05-25T04:48:57.489Z,704.00
2018-05-25T04:49:57.367Z,712.00
2018-05-25T04:50:57.238Z,720.00
2018-05-25T04:51:57.113Z,728.00
2018-05-25T04:52:56.988Z,736.00
2018-05-25T04:53:56.867Z,740.00
2018-05-25T04:54:56.742Z,752.00
2018-05-25T04:55:56.619Z,756.00
2018-05-25T04:56:56.496Z,764.00
2018-05-25T04:57:56.369Z,768.00
2018-05-25T04:58:56.246Z,776.00
2018-05-25T04:59:56.120Z,784.00
2018-05-25T05:00:55.997Z,788.00
2018-05-25T05:01:55.878Z,796.00
2018-05-25T05:02:55.750Z,800.00
2018-05-25T05:03:55.623Z,804.00
2018-05-25T05:04:55.545Z,812.00
2018-05-25T05:05:55.376Z,820.00
2018-05-25T05:06:55.253Z,820.00
2018-05-25T05:07:55.132Z,828.00
2018-05-25T05:08:55.007Z,828.00
2018-05-25T05:09:54.880Z,836.00
2018-05-25T05:10:54.756Z,840.00
2018-05-25T05:11:54.634Z,844.00
2018-05-25T05:12:54.522Z,848.00
2018-05-25T05:13:54.385Z,852.00
2018-05-25T05:14:54.290Z,860.00
2018-05-25T05:15:54.138Z,864.00
2018-05-25T05:16:54.014Z,868.00
2018-05-25T05:17:53.891Z,872.00
2018-05-25T05:18:53.767Z,884.00
2018-05-25T05:19:53.646Z,888.00
2018-05-25T05:20:53.524Z,888.00
2018-05-25T05:21:53.397Z,892.00
2018-05-25T05:22:53.273Z,896.00
2018-05-25T05:23:53.150Z,900.00
2018-05-25T05:24:53.027Z,908.00
2018-05-25T05:25:52.902Z,912.00
2018-05-25T05:26:52.784Z,916.00
2018-05-25T05:27:52.656Z,920.00
2018-05-25T05:28:52.533Z,924.00
2018-05-25T05:29:52.409Z,928.00
2018-05-25T05:30:52.286Z,936.00
2018-05-25T05:31:52.162Z,936.00
2018-05-25T05:32:52.043Z,940.00
2018-05-25T05:33:51.916Z,940.00
2018-05-25T05:34:51.843Z,948.00
2018-05-25T05:35:51.675Z,952.00
2018-05-25T05:36:51.547Z,956.00
2018-05-25T05:37:51.427Z,956.00
2018-05-25T05:38:51.300Z,960.00
2018-05-25T05:39:51.177Z,960.00
2018-05-25T05:40:51.068Z,948.00
2018-05-25T05:41:50.936Z,952.00
2018-05-25T05:42:50.809Z,956.00
2018-05-25T05:43:50.684Z,956.00
2018-05-25T05:44:50.568Z,960.00
2018-05-25T05:45:50.441Z,964.00
2018-05-25T05:46:50.317Z,968.00
2018-05-25T05:47:50.195Z,968.00
2018-05-25T05:48:50.073Z,972.00
2018-05-25T05:49:49.954Z,972.00
2018-05-25T05:50:49.850Z,976.00
2018-05-25T05:51:49.704Z,980.00
2018-05-25T05:52:49.583Z,980.00
2018-05-25T05:53:49.458Z,984.00
2018-05-25T05:54:49.377Z,984.00
2018-05-25T05:55:49.212Z,992.00
2018-05-25T05:56:49.089Z,992.00
2018-05-25T05:57:48.968Z,992.00
2018-05-25T05:58:48.843Z,996.00
2018-05-25T05:59:48.720Z,1000.00
2018-05-25T06:00:48.599Z,1004.00
2018-05-25T06:01:48.479Z,1008.00
2018-05-25T06:02:48.353Z,1008.00
2018-05-25T06:03:48.235Z,1016.00
2018-05-25T06:04:48.107Z,1016.00
2018-05-25T06:05:47.984Z,1016.00
2018-05-25T06:06:47.860Z,1020.00
2018-05-25T06:07:47.738Z,1020.00
2018-05-25T06:08:47.615Z,1024.00
2018-05-25T06:09:47.492Z,1024.00
2018-05-25T06:10:47.368Z,1028.00
2018-05-25T06:11:47.247Z,1032.00
2018-05-25T06:12:47.122Z,1036.00
2018-05-25T06:13:47.007Z,1036.00
2018-05-25T06:14:46.880Z,1040.00
2018-05-25T06:15:46.756Z,1044.00
2018-05-25T06:16:46.633Z,1044.00
2018-05-25T06:17:46.510Z,1048.00
2018-05-25T06:18:46.387Z,1052.00
2018-05-25T06:19:46.262Z,1052.00
2018-05-25T06:20:46.140Z,1056.00
2018-05-25T06:21:46.020Z,1056.00
2018-05-25T06:22:45.897Z,1060.00
2018-05-25T06:23:45.775Z,1060.00
2018-05-25T06:24:45.651Z,1064.00
2018-05-25T06:25:45.528Z,1068.00
2018-05-25T06:26:45.409Z,1068.00
2018-05-25T06:27:45.288Z,1072.00
2018-05-25T06:28:45.162Z,1072.00
2018-05-25T06:29:45.039Z,1076.00
2018-05-25T06:30:44.915Z,1076.00
2018-05-25T06:31:44.803Z,1080.00
2018-05-25T06:32:44.674Z,1084.00
2018-05-25T06:33:44.548Z,1084.00
2018-05-25T06:34:44.443Z,1088.00
2018-05-25T06:35:44.303Z,1088.00
2018-05-25T06:36:44.180Z,1092.00
2018-05-25T06:37:44.058Z,1092.00
2018-05-25T06:38:43.936Z,1096.00
2018-05-25T06:39:43.812Z,1096.00
2018-05-25T06:40:43.693Z,1100.00
2018-05-25T06:41:43.570Z,1100.00
2018-05-25T06:42:43.446Z,1096.00
2018-05-25T06:43:43.321Z,1104.00
2018-05-25T06:44:43.200Z,1104.00
2018-05-25T06:45:43.080Z,1104.00
2018-05-25T06:46:42.958Z,1108.00
2018-05-25T06:47:42.834Z,1112.00
2018-05-25T06:48:42.711Z,1116.00
2018-05-25T06:49:42.589Z,1116.00
2018-05-25T06:50:42.483Z,1120.00
2018-05-25T06:51:42.346Z,1120.00
2018-05-25T06:52:42.223Z,1128.00
2018-05-25T06:53:42.101Z,1128.00
2018-05-25T06:54:41.978Z,1136.00
2018-05-25T06:55:41.862Z,1136.00
2018-05-25T06:56:41.739Z,1140.00
2018-05-25T06:57:41.613Z,1140.00
2018-05-25T06:58:41.492Z,1144.00
2018-05-25T06:59:41.374Z,1148.00
2018-05-25T07:00:41.256Z,1152.00
2018-05-25T07:01:41.129Z,1156.00
2018-05-25T07:02:41.009Z,1160.00
2018-05-25T07:03:40.884Z,1164.00
2018-05-25T07:04:40.763Z,1164.00
2018-05-25T07:05:40.641Z,1168.00
2018-05-25T07:06:40.518Z,1168.00
2018-05-25T07:07:40.397Z,1172.00
2018-05-25T07:08:40.275Z,1172.00
2018-05-25T07:09:40.153Z,1176.00
2018-05-25T07:10:40.036Z,1176.00
2018-05-25T07:11:39.912Z,1176.00
2018-05-25T07:12:39.790Z,1180.00
2018-05-25T07:13:39.668Z,1180.00
2018-05-25T07:14:39.547Z,1184.00
2018-05-25T07:15:39.424Z,1180.00
2018-05-25T07:16:39.301Z,1180.00
2018-05-25T07:17:39.181Z,1188.00
2018-05-25T07:18:39.062Z,1188.00
2018-05-25T07:19:38.942Z,1188.00
2018-05-25T07:20:38.818Z,1192.00
2018-05-25T07:21:38.696Z,1192.00
2018-05-25T07:22:38.576Z,1196.00
2018-05-25T07:23:38.453Z,1196.00
2018-05-25T07:24:38.332Z,1192.00
2018-05-25T07:25:38.214Z,1200.00
2018-05-25T07:26:38.092Z,1200.00
2018-05-25T07:27:37.968Z,1204.00
2018-05-25T07:28:37.851Z,1204.00
2018-05-25T07:29:37.725Z,1208.00
2018-05-25T07:30:37.610Z,1208.00
2018-05-25T07:31:37.484Z,1212.00
2018-05-25T07:32:37.362Z,1212.00
2018-05-25T07:33:37.241Z,1216.00
2018-05-25T07:34:37.124Z,1220.00
2018-05-25T07:35:36.998Z,1216.00
2018-05-25T07:36:36.879Z,1224.00
2018-05-25T07:37:36.778Z,1228.00
2018-05-25T07:38:36.636Z,1228.00
2018-05-25T07:39:36.516Z,1232.00
2018-05-25T07:40:36.396Z,1236.00
2018-05-25T07:41:36.274Z,1240.00
2018-05-25T07:42:36.152Z,1244.00
2018-05-25T07:43:36.031Z,1248.00
2018-05-25T07:44:35.911Z,1252.00
2018-05-25T07:45:35.791Z,1260.00
2018-05-25T07:46:35.668Z,1260.00
2018-05-25T07:47:35.550Z,1264.00
2018-05-25T07:48:35.426Z,1272.00
2018-05-25T07:49:35.307Z,1272.00
2018-05-25T07:50:35.194Z,1280.00
2018-05-25T07:51:35.065Z,1284.00
2018-05-25T07:52:34.947Z,1288.00
2018-05-25T07:53:34.824Z,1292.00
2018-05-25T07:54:34.704Z,1300.00
2018-05-25T07:55:34.583Z,1300.00
2018-05-25T07:56:34.462Z,1312.00
2018-05-25T07:57:34.343Z,1316.00
2018-05-25T07:58:34.228Z,1324.00
2018-05-25T07:59:34.107Z,1324.00
2018-05-25T08:00:33.982Z,1328.00
2018-05-25T08:01:33.867Z,1332.00
2018-05-25T08:02:33.742Z,1340.00
2018-05-25T08:03:33.624Z,1344.00
2018-05-25T08:04:33.504Z,1348.00
2018-05-25T08:05:33.382Z,1352.00
2018-05-25T08:06:33.266Z,1356.00
2018-05-25T08:07:33.143Z,1356.00
2018-05-25T08:08:33.028Z,1364.00
2018-05-25T08:09:32.910Z,1368.00
2018-05-25T08:10:32.787Z,1380.00
2018-05-25T08:11:32.668Z,1392.00
2018-05-25T08:12:32.547Z,1392.00
2018-05-25T08:13:32.428Z,1388.00
2018-05-25T08:14:32.306Z,1392.00
2018-05-25T08:15:32.188Z,1388.00
2018-05-25T08:16:32.066Z,1388.00
2018-05-25T08:17:31.948Z,1388.00
2018-05-25T08:18:31.830Z,1392.00
2018-05-25T08:19:31.708Z,1392.00
2018-05-25T08:20:31.588Z,1400.00
2018-05-25T08:21:31.468Z,1404.00
2018-05-25T08:22:31.350Z,1404.00
2018-05-25T08:23:31.229Z,1412.00
2018-05-25T08:24:31.109Z,1412.00
2018-05-25T08:25:30.993Z,1412.00
2018-05-25T08:26:30.869Z,1416.00
2018-05-25T08:27:30.755Z,1420.00
2018-05-25T08:28:30.633Z,1420.00
2018-05-25T08:29:30.513Z,1424.00
2018-05-25T08:30:30.394Z,1428.00
2018-05-25T08:31:30.275Z,1428.00
2018-05-25T08:32:30.156Z,1420.00
2018-05-25T08:33:30.035Z,1424.00
2018-05-25T08:34:29.918Z,1432.00
2018-05-25T08:35:29.797Z,1440.00
2018-05-25T08:36:29.677Z,1456.00
2018-05-25T08:37:29.561Z,1468.00
2018-05-25T08:38:29.441Z,1472.00
2018-05-25T08:39:29.321Z,1476.00
2018-05-25T08:40:29.237Z,1476.00
2018-05-25T08:41:29.083Z,1456.00
2018-05-25T08:42:28.964Z,1468.00
2018-05-25T08:43:28.843Z,1476.00
2018-05-25T08:44:28.730Z,1496.00
2018-05-25T08:45:28.613Z,1548.00
2018-05-25T08:46:28.491Z,1640.00
2018-05-25T08:47:28.375Z,1728.00
2018-05-25T08:48:28.253Z,1720.00
2018-05-25T08:49:28.175Z,1636.00
2018-05-25T08:50:28.015Z,1580.00
2018-05-25T08:51:27.903Z,1552.00
2018-05-25T08:52:27.779Z,1528.00
2018-05-25T08:53:27.665Z,1504.00
2018-05-25T08:54:27.544Z,1524.00
2018-05-25T08:55:27.425Z,1504.00
2018-05-25T08:56:27.304Z,1496.00
2018-05-25T08:57:27.187Z,1516.00
2018-05-25T08:58:27.067Z,1528.00
2018-05-25T08:59:26.950Z,1576.00
2018-05-25T09:00:26.830Z,1588.00
2018-05-25T09:01:26.713Z,1576.00
2018-05-25T09:02:26.594Z,1572.00
2018-05-25T09:03:26.479Z,1584.00
2018-05-25T09:04:26.358Z,1608.00
2018-05-25T09:05:26.238Z,1716.00
2018-05-25T09:06:26.122Z,1840.00
2018-05-25T09:07:26.003Z,1932.00
2018-05-25T09:08:25.884Z,1968.00
2018-05-25T09:09:25.765Z,2004.00
2018-05-25T09:10:25.648Z,2024.00
2018-05-25T09:11:25.528Z,2072.00
2018-05-25T09:12:25.448Z,2032.00
2018-05-25T09:13:25.291Z,2016.00
2018-05-25T09:14:25.173Z,2112.00
2018-05-25T09:15:25.056Z,2240.00
2018-05-25T09:16:24.940Z,2432.00
2018-05-25T09:17:24.831Z,2552.00
2018-05-25T09:18:24.704Z,2648.00
2018-05-25T09:19:24.584Z,2680.00
2018-05-25T09:20:24.465Z,2740.00
2018-05-25T09:21:24.349Z,2968.00
2018-05-25T09:22:24.232Z,3220.00
2018-05-25T09:23:24.112Z,3360.00
2018-05-25T09:24:23.996Z,3144.00
2018-05-25T09:25:23.877Z,2848.00
2018-05-25T09:26:23.757Z,2756.00
2018-05-25T09:27:23.642Z,2744.00
2018-05-25T09:28:23.526Z,3052.00
2018-05-25T09:29:23.408Z,3256.00
2018-05-25T09:30:23.287Z,3224.00
2018-05-25T09:31:23.172Z,3236.00
2018-05-25T09:32:23.057Z,3352.00
2018-05-25T09:33:22.937Z,3444.00
2018-05-25T09:34:22.817Z,3672.00
2018-05-25T09:35:22.702Z,3864.00
2018-05-25T09:36:22.610Z,4028.00
2018-05-25T09:37:22.464Z,4096.00
2018-05-25T09:38:22.349Z,4424.00
2018-05-25T09:39:22.232Z,4460.00
2018-05-25T09:40:22.113Z,4548.00
2018-05-25T09:41:21.997Z,4620.00
2018-05-25T09:42:21.879Z,4544.00
2018-05-25T09:43:21.782Z,4332.00
2018-05-25T09:44:21.643Z,3936.00
2018-05-25T09:45:21.530Z,3608.00
2018-05-25T09:46:21.406Z,3476.00
2018-05-25T09:47:21.291Z,3680.00
2018-05-25T09:48:21.175Z,3940.00
2018-05-25T09:49:21.056Z,4172.00
2018-05-25T09:50:20.943Z,4412.00
2018-05-25T09:51:20.822Z,4368.00
2018-05-25T09:52:20.704Z,4000.00
2018-05-25T09:53:20.590Z,3872.00
2018-05-25T09:54:20.474Z,3844.00
2018-05-25T09:55:20.395Z,3644.00
2018-05-25T09:56:20.238Z,3600.00
2018-05-25T09:57:20.122Z,3600.00
2018-05-25T09:58:20.006Z,3588.00
2018-05-25T09:59:19.887Z,3636.00
2018-05-25T10:00:19.775Z,3784.00
2018-05-25T10:01:19.655Z,3816.00
2018-05-25T10:02:19.539Z,3756.00
2018-05-25T10:03:19.424Z,3344.00
2018-05-25T10:04:19.304Z,2928.00
2018-05-25T10:05:19.188Z,2712.00
2018-05-25T10:06:19.074Z,2788.00
2018-05-25T10:07:18.957Z,3108.00
2018-05-25T10:08:18.838Z,3612.00
2018-05-25T10:09:18.722Z,4156.00
2018-05-25T10:10:18.606Z,4612.00
2018-05-25T10:11:18.489Z,4796.00
2018-05-25T10:12:18.378Z,4796.00
2018-05-25T10:13:18.257Z,4736.00
2018-05-25T10:14:18.139Z,4488.00
2018-05-25T10:15:18.024Z,4184.00
2018-05-25T10:16:17.911Z,3904.00
2018-05-25T10:17:17.789Z,3660.00
2018-05-25T10:18:17.672Z,3340.00
2018-05-25T10:19:17.555Z,3608.00
2018-05-25T10:20:17.439Z,4076.00
2018-05-25T10:21:17.326Z,4468.00
2018-05-25T10:22:17.208Z,4892.00
2018-05-25T10:23:17.089Z,5388.00
2018-05-25T10:24:16.972Z,5856.00
2018-05-25T10:25:16.859Z,6076.00
2018-05-25T10:26:16.743Z,5892.00
2018-05-25T10:27:16.622Z,5904.00
2018-05-25T10:28:16.508Z,6172.00
2018-05-25T10:29:16.393Z,6408.00
2018-05-25T10:30:16.277Z,6548.00
2018-05-25T10:31:16.161Z,6556.00
2018-05-25T10:32:16.047Z,6528.00
2018-05-25T10:33:15.933Z,6400.00
2018-05-25T10:34:15.812Z,6408.00
2018-05-25T10:35:15.701Z,6656.00
2018-05-25T10:36:15.582Z,6480.00
2018-05-25T10:37:15.467Z,6232.00
2018-05-25T10:38:15.350Z,6072.00
2018-05-25T10:39:15.238Z,5708.00
2018-05-25T10:40:15.121Z,5404.00
2018-05-25T10:41:15.029Z,5172.00
2018-05-25T10:42:14.890Z,4948.00
2018-05-25T10:43:14.780Z,5140.00
2018-05-25T10:44:14.666Z,5420.00
2018-05-25T10:45:14.546Z,5500.00
2018-05-25T10:46:14.435Z,5420.00
2018-05-25T10:47:14.317Z,5356.00
2018-05-25T10:48:14.204Z,5272.00
2018-05-25T10:49:14.088Z,5072.00
2018-05-25T10:50:13.974Z,4892.00
2018-05-25T10:51:13.860Z,4792.00
2018-05-25T10:52:13.745Z,4616.00
2018-05-25T10:53:13.631Z,4548.00
2018-05-25T10:54:13.539Z,4696.00
2018-05-25T10:55:13.402Z,4460.00
2018-05-25T10:56:13.287Z,4320.00
2018-05-25T10:57:13.172Z,3616.00
2018-05-25T10:58:13.064Z,3596.00
2018-05-25T10:59:12.947Z,3524.00
2018-05-25T11:00:12.833Z,3676.00
2018-05-25T11:01:12.722Z,3812.00
2018-05-25T11:02:12.609Z,3956.00
2018-05-25T11:03:12.490Z,3544.00
2018-05-25T11:04:12.375Z,3624.00
2018-05-25T11:05:12.264Z,3496.00
2018-05-25T11:06:12.147Z,3804.00
2018-05-25T11:07:12.034Z,3812.00
2018-05-25T11:08:11.923Z,4040.00
2018-05-25T11:09:11.806Z,4952.00
2018-05-25T11:10:11.697Z,5508.00
2018-05-25T11:11:11.577Z,5056.00
2018-05-25T11:12:11.553Z,5324.00
2018-05-25T11:13:11.349Z,5220.00
2018-05-25T11:14:11.233Z,5180.00
2018-05-25T11:15:11.119Z,4892.00
2018-05-25T11:16:11.005Z,5000.00
2018-05-25T11:17:10.943Z,4844.00
2018-05-25T11:18:10.774Z,4924.00
2018-05-25T11:19:10.746Z,4548.00
2018-05-25T11:20:10.543Z,4416.00
2018-05-25T11:21:10.425Z,4696.00
2018-05-25T11:22:10.314Z,4984.00
2018-05-25T11:23:10.196Z,5164.00
2018-05-25T11:24:10.083Z,6476.00
2018-05-25T11:25:09.965Z,5864.00
2018-05-25T11:26:09.853Z,6568.00
2018-05-25T11:27:09.756Z,5452.00
2018-05-25T11:28:09.622Z,5576.00
2018-05-25T11:29:09.507Z,5908.00
2018-05-25T11:30:09.391Z,5904.00
2018-05-25T11:31:09.274Z,5508.00
2018-05-25T11:32:09.164Z,6736.00
2018-05-25T11:33:09.047Z,6256.00
2018-05-25T11:34:08.933Z,5920.00
2018-05-25T11:35:08.824Z,6500.00
2018-05-25T11:36:08.702Z,6860.00
2018-05-25T11:37:08.588Z,7496.00
2018-05-25T11:38:08.475Z,7920.00
2018-05-25T11:39:08.360Z,7600.00
2018-05-25T11:40:08.250Z,6804.00
2018-05-25T11:41:08.132Z,5624.00
2018-05-25T11:42:08.019Z,5236.00
2018-05-25T11:43:07.904Z,5060.00
2018-05-25T11:44:07.794Z,4940.00
2018-05-25T11:45:07.676Z,4868.00
2018-05-25T11:46:07.563Z,4748.00
2018-05-25T11:47:07.448Z,4428.00
2018-05-25T11:48:07.336Z,4328.00
2018-05-25T11:49:07.222Z,3980.00
2018-05-25T11:50:07.113Z,3824.00
2018-05-25T11:51:06.992Z,3960.00
2018-05-25T11:52:06.877Z,4248.00
2018-05-25T11:53:06.789Z,4292.00
2018-05-25T11:54:06.649Z,4088.00
2018-05-25T11:55:06.535Z,3868.00
2018-05-25T11:56:06.419Z,3740.00
2018-05-25T11:57:06.304Z,3900.00
2018-05-25T11:58:06.193Z,3996.00
2018-05-25T11:59:06.075Z,3832.00
2018-05-25T12:00:05.961Z,3684.00
2018-05-25T12:01:05.845Z,3608.00
2018-05-25T12:02:05.730Z,3472.00
2018-05-25T12:03:05.619Z,3664.00
2018-05-25T12:04:05.497Z,3972.00
2018-05-25T12:05:05.385Z,3832.00
2018-05-25T12:06:05.269Z,3608.00
2018-05-25T12:07:05.156Z,3392.00
2018-05-25T12:08:05.033Z,3216.00
2018-05-25T12:09:04.920Z,3068.00
2018-05-25T12:10:04.804Z,2928.00
2018-05-25T12:11:04.689Z,2656.00
2018-05-25T12:12:04.572Z,2572.00
2018-05-25T12:13:04.452Z,2480.00
2018-05-25T12:14:04.339Z,2432.00
2018-05-25T12:15:04.227Z,2460.00
2018-05-25T12:16:04.104Z,2484.00
2018-05-25T12:17:03.989Z,2480.00
2018-05-25T12:18:03.876Z,2432.00
2018-05-25T12:19:03.756Z,2376.00
2018-05-25T12:20:03.639Z,2324.00
2018-05-25T12:21:03.524Z,2308.00
2018-05-25T12:22:03.406Z,2344.00
2018-05-25T12:23:03.295Z,2404.00
2018-05-25T12:24:03.174Z,2416.00
2018-05-25T12:25:03.059Z,2428.00
2018-05-25T12:26:02.945Z,2464.00
2018-05-25T12:27:02.820Z,2480.00
2018-05-25T12:28:02.736Z,2464.00